Time;durP1;ratioP1;P1;durP2;ratioP2;P2;SDS_P1;SDS_P2;PMS_P1;PMS_P2;Temp;Humidity;BMP_temperature;BMP_pressure;BME280_temperature;BME280_humidity;BME280_pressure;Samples;Min_cycle;Max_cycle;Signal;HPM_P1;HPM_P2
2022/06/02 00:00:41;;;;;;;3.22;2.10;;;;;;;18.49;74.84;99626.69;1740599;82;21069;-81
2022/06/02 00:03:31;;;;;;;2.17;2.00;;;;;;;18.49;74.83;99621.36;1740603;82;21435;-81
2022/06/02 00:06:18;;;;;;;2.47;1.70;;;;;;;18.50;74.08;99623.05;1740451;82;21026;-81
2022/06/02 00:09:08;;;;;;;3.27;1.80;;;;;;;18.54;74.13;99612.59;1700343;82;21507;-82
2022/06/02 00:11:58;;;;;;;3.70;1.98;;;;;;;18.54;74.22;99611.71;1739165;82;21348;-82
2022/06/02 00:14:48;;;;;;;4.15;2.10;;;;;;;18.52;74.09;99618.47;1747518;82;22106;-82
2022/06/02 00:17:41;;;;;;;2.72;2.08;;;;;;;18.51;74.14;99620.78;1747525;82;21609;-82
2022/06/02 00:20:16;;;;;;;2.65;1.62;;;;;;;18.49;74.52;99628.02;1747466;82;21078;-81
2022/06/02 00:23:14;;;;;;;3.47;1.98;;;;;;;18.46;74.93;99629.55;1747539;82;21509;-81
2022/06/02 00:25:52;;;;;;;2.62;1.67;;;;;;;18.41;75.28;99626.34;1747556;82;20974;-81
2022/06/02 00:28:27;;;;;;;4.35;1.92;;;;;;;18.40;75.29;99626.44;1747336;82;21046;-80
2022/06/02 00:31:25;;;;;;;3.35;1.80;;;;;;;18.39;75.62;99625.56;1747349;82;21121;-81
2022/06/02 00:34:24;;;;;;;1.87;1.65;;;;;;;18.37;75.76;99627.02;1747851;82;21058;-82
2022/06/02 00:37:16;;;;;;;4.25;1.80;;;;;;;18.33;75.55;99629.97;1747568;82;21054;-80
2022/06/02 00:39:45;;;;;;;4.22;1.95;;;;;;;18.30;75.56;99626.17;1747550;82;20979;-81
2022/06/02 00:42:35;;;;;;;1.80;1.70;;;;;;;18.31;75.71;99630.56;1695176;82;21109;-81
2022/06/02 00:45:12;;;;;;;1.98;1.82;;;;;;;18.32;76.09;99630.92;1747650;82;21694;-80
2022/06/02 00:47:57;;;;;;;2.90;1.62;;;;;;;18.28;76.14;99638.74;1747391;81;21011;-82
2022/06/02 00:50:53;;;;;;;3.80;1.92;;;;;;;18.24;76.13;99630.55;1747584;82;21130;-81
2022/06/02 00:53:42;;;;;;;3.85;1.98;;;;;;;18.22;76.00;99633.80;1747422;82;21022;-82
2022/06/02 00:59:32;;;;;;;3.85;2.70;;;;;;;18.14;76.36;99673.77;1747481;82;21145;-80
2022/06/02 01:01:59;;;;;;;6.55;2.33;;;;;;;18.01;76.11;99658.19;1747429;82;22219;-80
2022/06/02 01:04:25;;;;;;;7.15;2.67;;;;;;;17.98;76.01;99659.71;1747617;82;21502;-79
2022/06/02 01:07:09;;;;;;;5.37;2.20;;;;;;;17.99;75.94;99677.41;1718341;82;21070;-80
2022/06/02 01:10:07;;;;;;;8.20;2.80;;;;;;;17.95;76.57;99699.34;1747021;82;20967;-80
2022/06/02 01:12:54;;;;;;;3.50;2.67;;;;;;;17.83;76.71;99676.97;1747667;82;21682;-81
2022/06/02 01:15:44;;;;;;;3.33;2.70;;;;;;;17.76;77.50;99691.62;1747172;82;20992;-80
2022/06/02 01:18:28;;;;;;;4.45;2.35;;;;;;;17.69;77.59;99692.95;1747717;82;21007;-80
2022/06/02 01:21:12;;;;;;;4.62;2.30;;;;;;;17.64;77.69;99687.06;1747362;82;21995;-80
2022/06/02 01:24:08;;;;;;;4.30;2.62;;;;;;;17.59;77.85;99694.47;1739401;82;21061;-82
2022/06/02 01:26:59;;;;;;;3.95;2.20;;;;;;;17.54;78.04;99683.25;1747572;82;21252;-80
2022/06/02 01:30:03;;;;;;;4.28;2.47;;;;;;;17.52;77.80;99669.20;1747433;82;21467;-81
2022/06/02 01:32:38;;;;;;;4.75;2.40;;;;;;;17.57;77.64;99678.59;1747235;82;21110;-81
2022/06/02 01:35:17;;;;;;;2.35;2.22;;;;;;;17.61;77.29;99668.63;1747631;82;21027;-81
2022/06/02 01:38:16;;;;;;;3.55;2.55;;;;;;;17.63;77.00;99664.93;1746317;82;20995;-81
2022/06/02 01:40:54;;;;;;;4.40;2.67;;;;;;;17.68;76.82;99661.96;1747324;82;21553;-82
2022/06/02 01:43:44;;;;;;;2.77;2.22;;;;;;;17.72;76.79;99662.17;1747346;82;22173;-82
2022/06/02 01:46:31;;;;;;;3.37;2.50;;;;;;;17.75;76.69;99663.31;1747284;81;21514;-82
2022/06/02 01:49:30;;;;;;;4.65;2.47;;;;;;;17.75;76.41;99667.77;1743975;82;20983;-82
2022/06/02 01:52:14;;;;;;;3.45;2.37;;;;;;;17.73;76.00;99657.20;1747583;82;21113;-81
2022/06/02 01:55:09;;;;;;;2.37;2.20;;;;;;;17.74;75.79;99658.94;1747356;82;22368;-81
2022/06/02 01:58:00;;;;;;;4.47;2.33;;;;;;;17.76;75.74;99665.01;1747230;82;21058;-82
2022/06/02 02:00:28;;;;;;;3.02;2.30;;;;;;;17.76;75.57;99670.33;1759258;80;21113;-82
2022/06/02 02:03:22;;;;;;;2.85;2.42;;;;;;;17.73;75.65;99669.19;1718899;82;21109;-82
2022/06/02 02:06:09;;;;;;;3.05;2.33;;;;;;;17.70;75.70;99669.40;1747223;82;21565;-82
2022/06/02 02:08:55;;;;;;;2.60;2.40;;;;;;;17.69;75.88;99669.01;1747427;82;21915;-83
2022/06/02 02:11:48;;;;;;;2.10;2.00;;;;;;;17.64;75.79;99663.96;1747103;81;21120;-82
2022/06/02 02:15:02;;;;;;;3.00;2.20;;;;;;;17.59;75.90;99660.73;1745669;82;21058;-83
2022/06/02 02:17:54;;;;;;;5.55;2.08;;;;;;;17.55;76.17;99658.34;1740428;82;21063;-81
2022/06/02 02:20:35;;;;;;;3.70;2.10;;;;;;;17.53;76.46;99652.27;1741265;82;20993;-83
2022/06/02 02:23:40;;;;;;;3.95;2.62;;;;;;;17.51;76.53;99649.70;1738991;82;21881;-81
2022/06/02 02:26:28;;;;;;;3.92;2.50;;;;;;;17.48;76.35;99649.88;1741815;82;21067;-82
2022/06/02 02:29:27;;;;;;;3.15;2.60;;;;;;;17.46;76.33;99647.31;1688383;84;21209;-83
2022/06/02 02:32:35;;;;;;;2.22;2.12;;;;;;;17.48;76.38;99653.03;1730895;82;21507;-82
2022/06/02 02:35:13;;;;;;;4.45;2.40;;;;;;;17.48;76.46;99654.36;1741262;82;21013;-82
2022/06/02 02:38:01;;;;;;;2.80;2.37;;;;;;;17.47;76.48;99652.18;1741650;82;22271;-81
2022/06/02 02:40:45;;;;;;;4.58;2.67;;;;;;;17.48;76.71;99665.84;1741290;82;21064;-81
2022/06/02 02:43:23;;;;;;;3.35;2.30;;;;;;;17.52;76.87;99670.53;1738147;82;21636;-82
2022/06/02 02:46:18;;;;;;;2.65;2.35;;;;;;;17.54;77.05;99672.61;1709132;82;21070;-81
2022/06/02 02:49:24;;;;;;;3.67;2.63;;;;;;;17.56;77.38;99665.39;1708305;82;21071;-83
2022/06/02 02:52:34;;;;;;;3.17;2.52;;;;;;;17.58;77.34;99666.14;1741733;82;21039;-82
2022/06/02 02:55:05;;;;;;;2.67;2.33;;;;;;;17.63;77.12;99661.39;1741668;82;22086;-82
2022/06/02 02:57:58;;;;;;;3.27;2.80;;;;;;;17.69;77.45;99661.03;1741760;82;21523;-82
2022/06/02 03:00:38;;;;;;;3.77;2.65;;;;;;;17.71;77.36;99656.45;1741724;82;21001;-83
2022/06/02 03:03:19;;;;;;;3.25;2.75;;;;;;;17.73;76.98;99663.02;1741743;82;21614;-83
2022/06/02 03:06:03;;;;;;;4.47;2.83;;;;;;;17.77;76.75;99673.84;1741695;82;21293;-82
2022/06/02 03:08:56;;;;;;;3.05;2.70;;;;;;;17.83;76.93;99675.64;1728115;82;21091;-83
2022/06/02 03:12:06;;;;;;;3.33;2.90;;;;;;;17.90;77.32;99673.97;1730060;82;21586;-81
2022/06/02 03:15:19;;;;;;;5.37;3.08;;;;;;;17.94;77.39;99680.83;1742150;82;21550;-82
2022/06/02 03:17:53;;;;;;;4.65;2.90;;;;;;;17.97;77.46;99680.61;1741852;82;21055;-81
2022/06/02 03:20:47;;;;;;;3.00;2.67;;;;;;;18.03;76.88;99680.73;1740634;82;21142;-81
2022/06/02 03:23:46;;;;;;;4.42;3.02;;;;;;;18.07;76.68;99684.44;1727929;82;21563;-84
2022/06/02 03:26:43;;;;;;;2.98;2.58;;;;;;;18.10;76.29;99683.38;1709869;82;21138;-82
2022/06/02 03:29:27;;;;;;;5.50;2.95;;;;;;;18.15;75.88;99690.11;1741788;82;21044;-81
2022/06/02 03:32:06;;;;;;;4.55;2.27;;;;;;;18.19;75.53;99690.80;1741674;82;21173;-83
2022/06/02 03:34:37;;;;;;;6.03;2.47;;;;;;;18.24;75.21;99693.14;1741773;82;21761;-82
2022/06/02 03:37:44;;;;;;;2.45;2.22;;;;;;;18.27;74.77;99695.13;1741529;82;21020;-82
2022/06/02 03:40:32;;;;;;;;;;;;;;;18.30;74.87;99699.42;1744502;82;21051;-81
2022/06/02 03:43:26;;;;;;;2.67;2.45;;;;;;;18.35;74.86;99701.31;1741861;82;20461;-82
2022/06/02 03:46:28;;;;;;;3.05;2.20;;;;;;;18.39;75.23;99705.48;1741518;82;21471;-83
2022/06/02 03:49:16;;;;;;;2.50;2.30;;;;;;;18.43;74.89;99700.83;1741535;82;21127;-83
2022/06/02 03:52:14;;;;;;;3.72;2.70;;;;;;;18.46;74.54;99705.48;1728786;82;21130;-84
2022/06/02 03:55:09;;;;;;;2.58;2.30;;;;;;;18.50;75.08;99701.66;1741735;82;21055;-82
2022/06/02 03:58:16;;;;;;;3.77;2.22;;;;;;;18.51;74.90;99699.38;1741724;82;22112;-80
2022/06/02 04:01:00;;;;;;;4.05;1.98;;;;;;;18.54;74.39;99707.18;1691930;82;21067;-82
2022/06/02 04:04:11;;;;;;;2.60;2.40;;;;;;;18.61;73.87;99700.09;1741463;82;21926;-83
2022/06/02 04:06:58;;;;;;;3.87;2.45;;;;;;;18.66;73.50;99692.66;1708758;83;21085;-83
2022/06/02 04:09:38;;;;;;;5.75;2.67;;;;;;;18.72;73.32;99701.59;1710150;82;21065;-84
2022/06/02 04:16:04;;;;;;;3.80;2.80;;;;;;;18.88;72.86;99705.00;1705491;84;21005;-82
2022/06/02 04:22:25;;;;;;;2.70;2.50;;;;;;;19.12;72.73;99708.32;1708620;84;21066;-82
2022/06/02 04:25:13;;;;;;;5.42;3.40;;;;;;;19.26;72.84;99712.23;1677595;85;21388;-83
2022/06/02 04:28:06;;;;;;;7.70;2.62;;;;;;;19.38;72.98;99711.87;1705223;84;21070;-84
2022/06/02 04:30:53;;;;;;;3.77;2.30;;;;;;;19.51;72.14;99715.91;1678025;85;21102;-85
2022/06/02 04:33:34;;;;;;;5.08;2.50;;;;;;;19.64;71.39;99730.12;1671633;85;21199;-81
2022/06/02 04:36:44;;;;;;;6.47;2.60;;;;;;;19.74;70.77;99726.34;1697647;83;21042;-83
2022/06/02 04:39:26;;;;;;;3.90;2.37;;;;;;;19.83;69.54;99722.20;1708800;83;21168;-85
2022/06/02 04:42:04;;;;;;;4.85;2.50;;;;;;;19.93;69.09;99715.25;1708545;83;21075;-85
2022/06/02 04:44:52;;;;;;;3.77;2.35;;;;;;;20.02;68.81;99702.59;1689995;84;21061;-84
2022/06/02 04:47:24;;;;;;;3.65;2.25;;;;;;;20.12;68.41;99700.09;1708825;83;22116;-83
2022/06/02 04:50:11;;;;;;;2.75;2.27;;;;;;;20.20;68.22;99704.91;1708424;83;21581;-81
2022/06/02 04:53:09;;;;;;;2.90;2.65;;;;;;;20.27;68.31;99703.48;1707773;83;21002;-81
2022/06/02 04:56:14;;;;;;;2.75;2.40;;;;;;;20.33;68.00;99702.22;1708617;82;21031;-82
2022/06/02 04:59:26;;;;;;;3.58;2.77;;;;;;;20.41;67.61;99690.00;1708762;84;21086;-83
2022/06/02 05:02:26;;;;;;;2.92;2.60;;;;;;;20.49;66.99;99692.09;1709136;83;21477;-84
2022/06/02 05:05:13;;;;;;;3.25;2.72;;;;;;;20.53;66.54;99687.41;1706768;84;21027;-84
2022/06/02 05:07:54;;;;;;;3.52;2.30;;;;;;;20.55;66.41;99684.12;1699012;84;22045;-83
2022/06/02 05:10:42;;;;;;;5.97;2.83;;;;;;;20.58;66.89;99685.24;1699057;84;21138;-83
2022/06/02 05:13:48;;;;;;;3.77;3.05;;;;;;;20.57;66.82;99681.70;1698984;84;21071;-82
2022/06/02 05:17:06;;;;;;;3.10;2.52;;;;;;;20.59;66.45;99680.25;1698998;84;21135;-83
2022/06/02 05:20:03;;;;;;;4.17;2.67;;;;;;;20.68;66.37;99678.28;1698814;84;21074;-84
2022/06/02 05:22:56;;;;;;;3.42;2.37;;;;;;;20.84;67.13;99682.48;1698820;84;21471;-84
2022/06/02 05:25:55;;;;;;;3.52;2.85;;;;;;;20.96;65.94;99677.08;1699126;84;21078;-82
2022/06/02 05:28:34;;;;;;;2.62;2.42;;;;;;;21.10;65.52;99670.67;1676073;84;21070;-84
2022/06/02 05:31:26;;;;;;;3.67;2.80;;;;;;;21.26;65.54;99673.52;1699033;84;21126;-83
2022/06/02 05:33:58;;;;;;;3.37;2.70;;;;;;;21.36;64.54;99675.84;1681262;84;21070;-82
2022/06/02 05:36:49;;;;;;;2.70;2.50;;;;;;;21.51;65.07;99680.53;1698794;84;21148;-83
2022/06/02 05:39:24;;;;;;;6.40;2.98;;;;;;;21.61;64.65;99680.18;1698957;84;21133;-83
2022/06/02 05:42:26;;;;;;;4.87;2.52;;;;;;;21.68;63.75;99685.91;1698541;84;21633;-83
2022/06/02 05:45:11;;;;;;;3.08;2.37;;;;;;;21.70;63.30;99687.51;1698874;84;22171;-81
2022/06/02 05:47:49;;;;;;;6.90;2.67;;;;;;;21.74;63.43;99686.78;1699177;84;28228;-83
2022/06/02 05:50:24;;;;;;;4.70;2.70;;;;;;;21.79;63.72;99680.57;1698700;84;21082;-85
2022/06/02 05:53:08;;;;;;;2.25;2.05;;;;;;;21.86;63.29;99673.75;1698311;84;21024;-83
2022/06/02 05:56:06;;;;;;;3.92;2.60;;;;;;;21.95;62.99;99676.67;1698737;84;24694;-83
2022/06/02 05:59:10;;;;;;;3.92;2.47;;;;;;;22.04;61.90;99683.96;1698875;84;21066;-82
2022/06/02 06:02:04;;;;;;;4.95;2.25;;;;;;;22.09;62.17;99681.80;1698535;84;22080;-83
2022/06/02 06:04:52;;;;;;;3.80;2.55;;;;;;;22.17;62.22;99690.54;1698315;84;21768;-82
2022/06/02 06:07:58;;;;;;;4.30;3.00;;;;;;;22.25;61.96;99687.60;1698305;84;21140;-82
2022/06/02 06:10:52;;;;;;;7.42;3.17;;;;;;;22.35;62.07;99684.23;1698824;84;21101;-82
2022/06/02 06:13:40;;;;;;;3.52;2.20;;;;;;;22.45;61.17;99695.41;1698815;84;21569;-82
2022/06/02 06:16:33;;;;;;;3.55;2.98;;;;;;;22.50;59.78;99700.41;1698259;84;21569;-84
2022/06/02 06:19:41;;;;;;;4.37;2.47;;;;;;;22.52;59.83;99693.08;1701729;83;21358;-84
2022/06/02 06:22:31;;;;;;;3.12;2.47;;;;;;;22.57;59.62;99693.55;1698715;84;21094;-86
2022/06/02 06:25:08;;;;;;;2.85;2.40;;;;;;;22.62;59.28;99691.84;1698911;84;21108;-82
2022/06/02 06:28:16;;;;;;;2.55;1.95;;;;;;;22.68;59.50;99694.03;1698768;84;21808;-85
2022/06/02 06:31:17;;;;;;;2.75;2.55;;;;;;;22.75;59.59;99694.38;1674968;84;21276;-83
2022/06/02 06:34:02;;;;;;;2.70;2.30;;;;;;;22.86;59.43;99698.34;1665380;86;21067;-86
2022/06/02 06:36:56;;;;;;;4.67;2.25;;;;;;;22.98;59.91;99707.20;1665646;85;21032;-85
2022/06/02 06:39:34;;;;;;;2.95;2.02;;;;;;;23.07;59.41;99701.61;1665783;86;21138;-85
2022/06/02 06:42:32;;;;;;;2.83;2.17;;;;;;;23.16;59.40;99700.81;1665594;86;22175;-85
2022/06/02 06:45:12;;;;;;;3.72;2.17;;;;;;;23.23;59.34;99701.99;1664733;86;21075;-84
2022/06/02 06:47:44;;;;;;;4.25;2.60;;;;;;;23.32;58.74;99699.89;1665479;85;21502;-86
2022/06/02 06:50:29;;;;;;;9.23;2.67;;;;;;;23.40;58.75;99702.40;1665506;86;22319;-85
2022/06/02 06:53:31;;;;;;;2.80;2.30;;;;;;;23.48;59.24;99706.13;1665742;86;21080;-81
2022/06/02 06:56:18;;;;;;;8.90;2.67;;;;;;;23.56;58.51;99700.11;1665385;86;21127;-85
2022/06/02 06:59:16;;;;;;;4.65;2.92;;;;;;;23.66;58.29;99699.67;1665527;86;21091;-84
2022/06/02 07:01:54;;;;;;;3.10;2.50;;;;;;;23.76;57.99;99708.30;1665521;86;21190;-85
2022/06/02 07:04:46;;;;;;;4.37;3.05;;;;;;;23.82;58.58;99709.11;1665386;86;21125;-82
2022/06/02 07:07:31;;;;;;;3.50;2.95;;;;;;;23.90;58.43;99714.17;1672079;85;21130;-85
2022/06/02 07:10:06;;;;;;;4.60;2.92;;;;;;;23.97;58.01;99722.55;1649083;85;21162;-82
2022/06/02 07:13:07;;;;;;;4.28;2.90;;;;;;;24.03;57.22;99724.71;1673099;85;21070;-84
2022/06/02 07:15:41;;;;;;;5.47;2.95;;;;;;;24.03;56.96;99721.18;1673362;85;21089;-82
2022/06/02 07:18:35;;;;;;;4.55;2.90;;;;;;;24.08;57.99;99722.47;1673550;85;21111;-84
2022/06/02 07:21:39;;;;;;;2.62;2.40;;;;;;;24.15;56.81;99725.97;1673408;85;21530;-81
2022/06/02 07:24:17;;;;;;;4.95;2.60;;;;;;;24.22;57.08;99729.31;1673735;85;21130;-84
2022/06/02 07:27:08;;;;;;;3.30;2.58;;;;;;;24.35;57.49;99726.90;1654044;85;22233;-83
2022/06/02 07:29:52;;;;;;;5.70;2.80;;;;;;;24.44;55.84;99728.28;1673360;85;21106;-85
2022/06/02 07:33:02;;;;;;;5.97;2.95;;;;;;;24.52;56.05;99735.64;1672895;85;21071;-84
2022/06/02 07:36:04;;;;;;;2.90;2.60;;;;;;;24.57;55.23;99739.30;1672953;85;21102;-85
2022/06/02 07:39:00;;;;;;;3.45;2.70;;;;;;;24.59;54.44;99746.73;1673470;85;21145;-83
2022/06/02 07:42:07;;;;;;;2.75;2.55;;;;;;;24.61;54.17;99743.41;1673149;85;21094;-84
2022/06/02 07:45:11;;;;;;;2.70;2.50;;;;;;;24.68;54.25;99746.40;1673352;85;21130;-82
2022/06/02 07:48:13;;;;;;;3.85;2.55;;;;;;;24.78;53.53;99745.45;1673757;85;21208;-84
2022/06/02 07:51:05;;;;;;;2.60;2.40;;;;;;;24.85;52.83;99747.92;1673276;85;21043;-82
2022/06/02 07:53:56;;;;;;;3.95;3.20;;;;;;;24.94;53.71;99742.70;1673324;85;21056;-83
2022/06/02 07:56:34;;;;;;;7.17;2.33;;;;;;;25.03;53.58;99743.19;1673247;85;21035;-83
2022/06/02 07:59:18;;;;;;;2.60;2.40;;;;;;;25.09;53.17;99745.33;1644559;85;21039;-85
2022/06/02 08:02:06;;;;;;;5.93;2.20;;;;;;;25.15;52.70;99742.08;1673506;85;21550;-82
2022/06/02 08:04:50;;;;;;;3.12;2.00;;;;;;;25.22;52.63;99744.55;1673296;85;21579;-84
2022/06/02 08:07:34;;;;;;;2.30;2.10;;;;;;;25.33;52.77;99742.23;1672706;85;21552;-84
2022/06/02 08:10:34;;;;;;;2.85;2.22;;;;;;;25.46;51.84;99743.80;1694636;84;21024;-85
2022/06/02 08:13:15;;;;;;;2.40;2.20;;;;;;;25.53;50.06;99746.27;1694321;84;21526;-83
2022/06/02 08:16:02;;;;;;;4.22;2.00;;;;;;;25.59;50.61;99746.54;1694597;84;21150;-83
2022/06/02 08:18:52;;;;;;;3.62;2.00;;;;;;;25.68;50.74;99754.25;1689487;84;21193;-86
2022/06/02 08:21:44;;;;;;;4.25;1.72;;;;;;;25.79;49.99;99758.64;1662480;84;21143;-86
2022/06/02 08:24:32;;;;;;;2.58;2.10;;;;;;;25.92;50.12;99761.00;1672681;85;21094;-84
2022/06/02 08:27:41;;;;;;;3.47;2.00;;;;;;;26.04;49.93;99751.80;1689333;84;21107;-86
2022/06/02 08:30:23;;;;;;;4.62;2.30;;;;;;;26.14;49.72;99757.13;1700505;84;21033;-82
2022/06/02 08:33:10;;;;;;;2.20;2.10;;;;;;;26.24;49.58;99756.63;1700623;84;21009;-85
2022/06/02 08:36:06;;;;;;;4.35;2.17;;;;;;;26.33;48.24;99750.32;1700884;84;21168;-85
2022/06/02 08:39:07;;;;;;;7.78;2.77;;;;;;;26.45;48.89;99755.53;1700813;84;21135;-83
2022/06/02 08:42:16;;;;;;;2.62;2.42;;;;;;;26.58;48.99;99754.68;1700783;84;21024;-85
2022/06/02 08:44:48;;;;;;;4.58;2.90;;;;;;;26.71;48.98;99757.55;1700543;84;21151;-83
2022/06/02 08:47:47;;;;;;;3.72;2.83;;;;;;;26.79;47.75;99754.42;1700993;84;21147;-82
2022/06/02 08:50:47;;;;;;;3.62;2.52;;;;;;;26.82;48.59;99758.17;1701244;84;21174;-82
2022/06/02 08:53:42;;;;;;;5.00;2.72;;;;;;;26.93;48.24;99749.00;1700714;84;48152;-84
2022/06/02 08:56:54;;;;;;;6.30;2.58;;;;;;;26.98;46.54;99753.47;1701074;84;21068;-86
2022/06/02 08:59:47;;;;;;;3.52;2.70;;;;;;;27.07;48.24;99757.09;1701037;84;22341;-82
2022/06/02 09:02:57;;;;;;;4.37;3.05;;;;;;;27.22;48.34;99751.48;1701049;84;21064;-82
2022/06/02 09:05:45;;;;;;;4.92;2.80;;;;;;;27.37;48.04;99743.72;1700793;84;21637;-86
2022/06/02 09:08:50;;;;;;;3.42;3.10;;;;;;;27.54;48.88;99739.80;1693520;84;21559;-85
2022/06/02 09:11:46;;;;;;;11.97;2.95;;;;;;;27.64;46.88;99734.27;1693767;84;21548;-82
2022/06/02 09:14:40;;;;;;;3.50;2.80;;;;;;;27.67;48.03;99732.13;1693430;84;21092;-84
2022/06/02 09:17:36;;;;;;;5.22;3.27;;;;;;;27.74;46.29;99733.19;1693738;84;21079;-87
2022/06/02 09:20:14;;;;;;;5.70;2.90;;;;;;;27.82;46.00;99739.13;1693724;84;21147;-86
2022/06/02 09:23:12;;;;;;;2.85;2.65;;;;;;;27.86;45.17;99740.53;1693387;84;21068;-84
2022/06/02 09:26:30;;;;;;;6.33;2.58;;;;;;;27.91;45.85;99739.55;1693200;84;21111;-85
2022/06/02 09:29:27;;;;;;;6.03;2.80;;;;;;;27.98;45.77;99735.73;1693395;84;21085;-86
2022/06/02 09:32:20;;;;;;;6.47;2.50;;;;;;;28.07;46.29;99735.27;1693366;84;21378;-85
2022/06/02 09:35:23;;;;;;;3.72;2.55;;;;;;;28.17;46.11;99735.47;1631952;84;21615;-87
2022/06/02 09:38:27;;;;;;;5.30;2.67;;;;;;;28.32;45.52;99738.94;1693361;84;21124;-85
2022/06/02 09:41:20;;;;;;;4.80;2.95;;;;;;;28.48;45.07;99726.83;1693397;84;21049;-85
2022/06/02 09:44:01;;;;;;;5.15;2.95;;;;;;;28.62;45.52;99727.24;1692996;84;21128;-85
2022/06/02 09:47:01;;;;;;;3.20;2.95;;;;;;;28.64;44.53;99725.21;1693312;84;21323;-86
2022/06/02 09:50:14;;;;;;;4.67;2.65;;;;;;;28.59;44.65;99722.16;1693405;84;21172;-87
2022/06/02 09:53:13;;;;;;;7.60;2.52;;;;;;;28.67;45.62;99723.53;1693437;84;21128;-85
2022/06/02 09:56:22;;;;;;;7.97;2.65;;;;;;;28.79;44.77;99718.14;1693371;84;21056;-85
2022/06/02 09:59:26;;;;;;;4.08;2.58;;;;;;;28.93;43.65;99714.44;1693353;84;21092;-87
2022/06/02 10:02:17;;;;;;;2.33;2.05;;;;;;;28.98;43.48;99714.78;1687966;84;22398;-83
2022/06/02 10:05:13;;;;;;;4.17;2.55;;;;;;;29.05;41.23;99714.44;1693267;84;21171;-82
2022/06/02 10:07:58;;;;;;;7.47;3.05;;;;;;;29.08;41.04;99708.20;1697498;84;21009;-85
2022/06/02 10:10:47;;;;;;;4.05;2.60;;;;;;;29.08;42.25;99704.63;1672123;85;21526;-86
2022/06/02 10:13:52;;;;;;;3.52;1.75;;;;;;;29.12;42.04;99701.94;1675434;85;21134;-84
2022/06/02 10:16:45;;;;;;;5.78;2.12;;;;;;;29.17;41.00;99699.60;1675571;85;21106;-87
2022/06/02 10:19:26;;;;;;;4.12;2.00;;;;;;;29.22;39.81;99697.75;1652417;85;21150;-86
2022/06/02 10:22:20;;;;;;;3.72;1.90;;;;;;;29.23;39.71;99682.64;1646828;87;21037;-85
2022/06/02 10:25:04;;;;;;;4.08;2.10;;;;;;;29.13;38.50;99687.36;1647152;87;21116;-86
2022/06/02 10:28:11;;;;;;;4.97;2.08;;;;;;;28.96;39.63;99674.83;1621705;88;21054;-83
2022/06/02 10:31:27;;;;;;;2.52;2.35;;;;;;;28.91;40.11;99669.40;1621481;88;22253;-86
2022/06/02 10:34:20;;;;;;;2.60;2.20;;;;;;;28.95;40.45;99671.29;1594202;90;21260;-88
2022/06/02 10:37:09;;;;;;;3.08;2.17;;;;;;;29.09;40.42;99661.63;1594448;90;22204;-87
2022/06/02 10:40:15;;;;;;;3.65;2.20;;;;;;;29.21;39.95;99660.30;1621679;88;21174;-85
2022/06/02 10:43:08;;;;;;;3.87;1.65;;;;;;;29.31;39.11;99654.70;1594386;90;21002;-85
2022/06/02 10:46:01;;;;;;;2.10;1.90;;;;;;;29.36;38.32;99652.84;1594652;88;21060;-84
2022/06/02 10:49:08;;;;;;;2.10;1.90;;;;;;;29.36;38.92;99646.07;1594626;90;21171;-87
2022/06/02 10:52:19;;;;;;;4.08;2.20;;;;;;;29.42;38.69;99644.88;1593086;89;21111;-85
2022/06/02 10:55:30;;;;;;;6.17;1.98;;;;;;;29.51;37.62;99640.80;1593126;89;22139;-86
2022/06/02 10:58:27;;;;;;;5.95;2.20;;;;;;;29.49;36.74;99634.67;1593246;90;21043;-85
2022/06/02 11:01:30;;;;;;;3.85;2.10;;;;;;;29.42;37.29;99627.75;1593150;90;21222;-87
2022/06/02 11:04:18;;;;;;;8.10;2.00;;;;;;;29.34;37.32;99618.30;1593027;89;21783;-86
2022/06/02 11:07:27;;;;;;;6.35;2.30;;;;;;;29.22;38.42;99615.94;1565263;89;21047;-86
2022/06/02 11:10:28;;;;;;;1.92;1.72;;;;;;;29.31;39.84;99614.06;1622348;87;21217;-87
2022/06/02 11:13:36;;;;;;;6.72;2.30;;;;;;;29.45;38.87;99612.01;1593854;89;21107;-86
2022/06/02 11:16:49;;;;;;;4.05;2.33;;;;;;;29.53;39.00;99607.58;1612186;89;21121;-87
2022/06/02 11:20:10;;;;;;;2.58;1.80;;;;;;;29.65;39.20;99607.53;1584918;90;21834;-83
2022/06/02 11:23:30;;;;;;;3.62;1.95;;;;;;;29.78;39.33;99607.02;1611694;88;21126;-85
2022/06/02 11:26:23;;;;;;;2.80;1.62;;;;;;;29.96;38.92;99602.19;1612129;89;21122;-87
2022/06/02 11:29:20;;;;;;;2.17;1.67;;;;;;;30.10;39.11;99601.95;1612149;89;21274;-87
2022/06/02 11:32:13;;;;;;;3.25;2.08;;;;;;;30.20;38.44;99594.95;1612257;89;21085;-85
2022/06/02 11:35:01;;;;;;;4.33;2.15;;;;;;;30.24;37.34;99590.84;1612160;89;21646;-86
2022/06/02 11:38:03;;;;;;;5.78;1.98;;;;;;;30.12;37.04;99593.63;1612020;88;21101;-86
2022/06/02 11:41:15;;;;;;;11.38;2.35;;;;;;;30.06;37.03;99591.13;1611974;88;21043;-85
2022/06/02 11:44:05;;;;;;;3.62;1.95;;;;;;;30.07;36.67;99590.61;1612111;89;21082;-87
2022/06/02 11:46:46;;;;;;;5.90;2.08;;;;;;;30.09;37.11;99585.84;1612237;89;21086;-86
2022/06/02 11:49:59;;;;;;;3.95;2.02;;;;;;;30.11;36.32;99574.30;1612465;89;21517;-88
2022/06/02 11:53:05;;;;;;;6.15;1.80;;;;;;;30.10;37.50;99577.53;1611998;89;21150;-85
2022/06/02 11:56:09;;;;;;;3.50;1.95;;;;;;;30.20;38.42;99567.81;1612125;88;21053;-87
2022/06/02 11:59:14;;;;;;;3.40;2.00;;;;;;;30.26;37.16;99568.95;1611869;89;21573;-86
2022/06/02 12:02:09;;;;;;;4.00;2.00;;;;;;;30.19;36.42;99563.39;1612185;88;21051;-85
2022/06/02 12:04:54;;;;;;;;;;;;;;;29.94;35.96;99568.98;1614933;89;21898;-84
2022/06/02 12:07:55;;;;;;;3.62;1.60;;;;;;;29.52;36.06;99568.79;1661168;86;25874;-85
2022/06/02 12:10:55;;;;;;;3.47;1.60;;;;;;;29.37;38.12;99563.23;1670408;85;21044;-84
2022/06/02 12:13:40;;;;;;;5.45;1.70;;;;;;;29.60;38.31;99559.77;1612403;85;21195;-86
2022/06/02 12:16:32;;;;;;;8.03;2.17;;;;;;;29.88;37.49;99561.54;1648093;86;21135;-86
2022/06/02 12:19:45;;;;;;;2.95;1.72;;;;;;;30.10;37.26;99555.82;1700581;84;21700;-86
2022/06/02 12:22:32;;;;;;;8.25;2.10;;;;;;;30.22;36.10;99554.90;1704085;84;21028;-85
2022/06/02 12:25:22;;;;;;;2.40;1.70;;;;;;;30.29;36.79;99551.79;1645474;87;21074;-85
2022/06/02 12:28:07;;;;;;;2.67;1.85;;;;;;;30.45;36.28;99552.23;1649689;84;21012;-82
2022/06/02 12:31:05;;;;;;;2.55;1.65;;;;;;;30.55;34.83;99552.00;1672565;85;21078;-86
2022/06/02 12:33:52;;;;;;;7.17;2.17;;;;;;;30.58;35.57;99557.06;1689736;84;21138;-85
2022/06/02 12:36:39;;;;;;;3.08;1.77;;;;;;;30.69;34.28;99562.05;1672566;85;21051;-85
2022/06/02 12:39:46;;;;;;;3.92;2.08;;;;;;;30.60;35.32;99557.72;1672381;85;21095;-83
2022/06/02 12:42:42;;;;;;;9.65;2.22;;;;;;;30.43;34.05;99565.64;1672600;85;21700;-89
2022/06/02 12:45:35;;;;;;;5.50;1.95;;;;;;;30.32;35.80;99553.31;1689950;84;21620;-88
2022/06/02 12:48:32;;;;;;;5.17;2.10;;;;;;;30.38;35.05;99557.54;1672199;85;21128;-87
2022/06/02 12:51:13;;;;;;;5.45;1.45;;;;;;;30.37;35.18;99557.72;1672389;85;21055;-84
2022/06/02 12:54:06;;;;;;;3.08;2.05;;;;;;;30.42;34.80;99546.33;1689581;84;21625;-86
2022/06/02 12:57:13;;;;;;;3.27;1.70;;;;;;;30.36;35.12;99535.17;1672572;85;21141;-87
2022/06/02 12:59:58;;;;;;;7.55;2.10;;;;;;;30.45;36.02;99527.80;1689422;84;21020;-86
2022/06/02 13:02:52;;;;;;;2.35;1.80;;;;;;;30.68;35.32;99519.64;1672530;85;21138;-84
2022/06/02 13:06:04;;;;;;;5.13;2.10;;;;;;;30.93;35.35;99512.59;1673030;85;21506;-85
2022/06/02 13:09:03;;;;;;;3.72;1.80;;;;;;;30.95;33.76;99502.94;1612479;85;21135;-85
2022/06/02 13:11:41;;;;;;;5.25;1.92;;;;;;;30.70;34.07;99504.52;1689653;84;21534;-86
2022/06/02 13:14:17;;;;;;;4.45;2.00;;;;;;;30.55;34.94;99499.88;1672493;85;21098;-87
2022/06/02 13:17:05;;;;;;;3.25;2.00;;;;;;;30.52;35.21;99495.34;1689837;84;21105;-86
2022/06/02 13:20:15;;;;;;;3.98;1.90;;;;;;;30.55;35.31;99502.59;1653127;85;21089;-83
2022/06/02 13:23:13;;;;;;;4.15;1.55;;;;;;;30.60;34.47;99506.13;1689937;84;21095;-83
2022/06/02 13:26:24;;;;;;;4.97;2.10;;;;;;;30.44;35.35;99492.16;1670344;85;21086;-82
2022/06/02 13:29:33;;;;;;;2.80;1.90;;;;;;;30.46;34.83;99496.06;1689520;84;21000;-84
2022/06/02 13:32:34;;;;;;;4.22;1.90;;;;;;;30.42;35.20;99494.23;1672438;85;21173;-87
2022/06/02 13:35:42;;;;;;;3.72;1.50;;;;;;;30.58;34.96;99495.97;1689758;84;20992;-86
2022/06/02 13:38:23;;;;;;;3.30;1.55;;;;;;;30.79;35.21;99487.62;1672623;85;21169;-88
2022/06/02 13:41:16;;;;;;;3.17;1.75;;;;;;;30.89;35.40;99486.31;1689874;84;21028;-86
2022/06/02 13:44:14;;;;;;;8.85;1.95;;;;;;;30.83;35.38;99484.33;1672593;85;21023;-85